sensor_id;sensor_type;location;lat;lon;timestamp;P1;durP1;ratioP1;P2;durP2;ratioP2
52494;SDS011;38405;53.212;5.660;2023-04-06T00:00:52;15.68;;;9.00;;
52494;SDS011;38405;53.212;5.660;2023-04-06T00:03:17;14.75;;;8.18;;
52494;SDS011;38405;53.212;5.660;2023-04-06T00:05:43;12.57;;;8.70;;
52494;SDS011;38405;53.212;5.660;2023-04-06T00:08:09;11.77;;;7.88;;
52494;SDS011;38405;53.212;5.660;2023-04-06T00:10:35;12.85;;;8.98;;
52494;SDS011;38405;53.212;5.660;2023-04-06T00:13:01;11.15;;;7.85;;
52494;SDS011;38405;53.212;5.660;2023-04-06T00:15:27;11.57;;;7.85;;
52494;SDS011;38405;53.212;5.660;2023-04-06T00:17:52;11.68;;;8.05;;
52494;SDS011;38405;53.212;5.660;2023-04-06T00:20:18;12.65;;;8.38;;
52494;SDS011;38405;53.212;5.660;2023-04-06T00:22:44;10.35;;;7.82;;
52494;SDS011;38405;53.212;5.660;2023-04-06T00:25:10;10.63;;;8.05;;
52494;SDS011;38405;53.212;5.660;2023-04-06T00:27:37;13.65;;;8.77;;
52494;SDS011;38405;53.212;5.660;2023-04-06T00:30:03;10.73;;;7.93;;
52494;SDS011;38405;53.212;5.660;2023-04-06T00:32:29;13.40;;;8.45;;
52494;SDS011;38405;53.212;5.660;2023-04-06T00:34:55;11.70;;;8.50;;
52494;SDS011;38405;53.212;5.660;2023-04-06T00:37:21;12.60;;;7.35;;
52494;SDS011;38405;53.212;5.660;2023-04-06T00:39:47;15.23;;;8.52;;
52494;SDS011;38405;53.212;5.660;2023-04-06T00:42:13;13.52;;;8.90;;
52494;SDS011;38405;53.212;5.660;2023-04-06T00:44:39;13.10;;;8.55;;
52494;SDS011;38405;53.212;5.660;2023-04-06T00:47:05;13.75;;;8.68;;
52494;SDS011;38405;53.212;5.660;2023-04-06T00:49:32;11.40;;;8.15;;
52494;SDS011;38405;53.212;5.660;2023-04-06T00:51:58;10.88;;;7.88;;
52494;SDS011;38405;53.212;5.660;2023-04-06T00:54:24;12.07;;;8.68;;
52494;SDS011;38405;53.212;5.660;2023-04-06T00:56:50;12.98;;;8.85;;
52494;SDS011;38405;53.212;5.660;2023-04-06T00:59:16;12.05;;;8.48;;
52494;SDS011;38405;53.212;5.660;2023-04-06T01:01:42;12.85;;;7.95;;
52494;SDS011;38405;53.212;5.660;2023-04-06T01:04:08;12.85;;;8.32;;
52494;SDS011;38405;53.212;5.660;2023-04-06T01:06:33;11.50;;;8.10;;
52494;SDS011;38405;53.212;5.660;2023-04-06T01:08:59;10.82;;;7.82;;
52494;SDS011;38405;53.212;5.660;2023-04-06T01:11:25;13.65;;;8.43;;
52494;SDS011;38405;53.212;5.660;2023-04-06T01:13:51;11.80;;;8.23;;
52494;SDS011;38405;53.212;5.660;2023-04-06T01:16:17;11.35;;;8.02;;
52494;SDS011;38405;53.212;5.660;2023-04-06T01:18:43;11.25;;;8.25;;
52494;SDS011;38405;53.212;5.660;2023-04-06T01:21:09;11.65;;;7.70;;
52494;SDS011;38405;53.212;5.660;2023-04-06T01:23:41;12.25;;;8.18;;
52494;SDS011;38405;53.212;5.660;2023-04-06T01:26:07;14.88;;;8.25;;
52494;SDS011;38405;53.212;5.660;2023-04-06T01:28:33;14.00;;;8.70;;
52494;SDS011;38405;53.212;5.660;2023-04-06T01:30:59;12.25;;;8.07;;
52494;SDS011;38405;53.212;5.660;2023-04-06T01:33:25;10.38;;;8.30;;
52494;SDS011;38405;53.212;5.660;2023-04-06T01:35:50;10.15;;;7.72;;
52494;SDS011;38405;53.212;5.660;2023-04-06T01:38:16;9.90;;;7.85;;
52494;SDS011;38405;53.212;5.660;2023-04-06T01:40:41;11.90;;;8.40;;
52494;SDS011;38405;53.212;5.660;2023-04-06T01:43:07;13.30;;;8.43;;
52494;SDS011;38405;53.212;5.660;2023-04-06T01:45:33;12.25;;;8.68;;
52494;SDS011;38405;53.212;5.660;2023-04-06T01:47:58;12.30;;;8.02;;
52494;SDS011;38405;53.212;5.660;2023-04-06T01:50:24;11.70;;;7.90;;
52494;SDS011;38405;53.212;5.660;2023-04-06T01:52:49;11.07;;;8.35;;
52494;SDS011;38405;53.212;5.660;2023-04-06T01:55:15;12.95;;;8.52;;
52494;SDS011;38405;53.212;5.660;2023-04-06T01:57:41;10.18;;;8.27;;
52494;SDS011;38405;53.212;5.660;2023-04-06T02:00:06;10.73;;;8.10;;
52494;SDS011;38405;53.212;5.660;2023-04-06T02:02:32;12.57;;;8.25;;
52494;SDS011;38405;53.212;5.660;2023-04-06T02:04:58;13.07;;;8.55;;
52494;SDS011;38405;53.212;5.660;2023-04-06T02:07:23;12.90;;;8.45;;
52494;SDS011;38405;53.212;5.660;2023-04-06T02:09:53;13.15;;;8.88;;
52494;SDS011;38405;53.212;5.660;2023-04-06T02:12:20;11.23;;;8.23;;
52494;SDS011;38405;53.212;5.660;2023-04-06T02:14:45;14.55;;;9.32;;
52494;SDS011;38405;53.212;5.660;2023-04-06T02:17:11;12.80;;;8.52;;
52494;SDS011;38405;53.212;5.660;2023-04-06T02:19:37;11.70;;;8.80;;
52494;SDS011;38405;53.212;5.660;2023-04-06T02:22:02;13.00;;;8.40;;
52494;SDS011;38405;53.212;5.660;2023-04-06T02:24:28;12.95;;;8.98;;
52494;SDS011;38405;53.212;5.660;2023-04-06T02:26:53;12.10;;;8.95;;
52494;SDS011;38405;53.212;5.660;2023-04-06T02:29:19;12.55;;;8.93;;
52494;SDS011;38405;53.212;5.660;2023-04-06T02:31:45;15.85;;;9.32;;
52494;SDS011;38405;53.212;5.660;2023-04-06T02:34:10;13.00;;;8.45;;
52494;SDS011;38405;53.212;5.660;2023-04-06T02:36:42;10.95;;;8.77;;
52494;SDS011;38405;53.212;5.660;2023-04-06T02:39:09;13.50;;;7.78;;
52494;SDS011;38405;53.212;5.660;2023-04-06T02:41:35;16.55;;;8.77;;
52494;SDS011;38405;53.212;5.660;2023-04-06T02:44:00;9.45;;;8.02;;
52494;SDS011;38405;53.212;5.660;2023-04-06T02:46:26;14.70;;;9.95;;
52494;SDS011;38405;53.212;5.660;2023-04-06T02:48:52;11.88;;;8.77;;
52494;SDS011;38405;53.212;5.660;2023-04-06T02:51:17;11.13;;;8.43;;
52494;SDS011;38405;53.212;5.660;2023-04-06T02:53:43;15.50;;;8.85;;
52494;SDS011;38405;53.212;5.660;2023-04-06T02:56:09;11.93;;;8.75;;
52494;SDS011;38405;53.212;5.660;2023-04-06T02:58:34;16.30;;;9.55;;
52494;SDS011;38405;53.212;5.660;2023-04-06T03:01:00;13.77;;;9.18;;
52494;SDS011;38405;53.212;5.660;2023-04-06T03:03:26;14.98;;;9.38;;
52494;SDS011;38405;53.212;5.660;2023-04-06T03:05:51;13.23;;;9.05;;
52494;SDS011;38405;53.212;5.660;2023-04-06T03:08:19;12.52;;;9.40;;
52494;SDS011;38405;53.212;5.660;2023-04-06T03:10:44;14.65;;;9.75;;
52494;SDS011;38405;53.212;5.660;2023-04-06T03:13:10;14.15;;;9.60;;
52494;SDS011;38405;53.212;5.660;2023-04-06T03:15:36;14.75;;;9.30;;
52494;SDS011;38405;53.212;5.660;2023-04-06T03:18:01;15.57;;;9.88;;
52494;SDS011;38405;53.212;5.660;2023-04-06T03:20:27;11.27;;;9.25;;
52494;SDS011;38405;53.212;5.660;2023-04-06T03:22:52;13.50;;;9.32;;
52494;SDS011;38405;53.212;5.660;2023-04-06T03:25:18;11.82;;;9.45;;
52494;SDS011;38405;53.212;5.660;2023-04-06T03:27:43;13.35;;;9.30;;
52494;SDS011;38405;53.212;5.660;2023-04-06T03:30:09;15.77;;;9.55;;
52494;SDS011;38405;53.212;5.660;2023-04-06T03:32:35;13.48;;;9.93;;
52494;SDS011;38405;53.212;5.660;2023-04-06T03:35:01;12.57;;;9.40;;
52494;SDS011;38405;53.212;5.660;2023-04-06T03:37:26;11.18;;;8.85;;
52494;SDS011;38405;53.212;5.660;2023-04-06T03:39:52;13.38;;;10.18;;
52494;SDS011;38405;53.212;5.660;2023-04-06T03:42:17;12.73;;;9.60;;
52494;SDS011;38405;53.212;5.660;2023-04-06T03:44:43;13.60;;;9.27;;
52494;SDS011;38405;53.212;5.660;2023-04-06T03:47:09;14.80;;;9.88;;
52494;SDS011;38405;53.212;5.660;2023-04-06T03:49:34;17.50;;;10.50;;
52494;SDS011;38405;53.212;5.660;2023-04-06T03:52:00;14.77;;;10.43;;
52494;SDS011;38405;53.212;5.660;2023-04-06T03:54:26;11.02;;;8.60;;
52494;SDS011;38405;53.212;5.660;2023-04-06T03:56:52;10.77;;;8.73;;
52494;SDS011;38405;53.212;5.660;2023-04-06T03:59:17;14.23;;;9.48;;
52494;SDS011;38405;53.212;5.660;2023-04-06T04:01:43;14.63;;;10.48;;
52494;SDS011;38405;53.212;5.660;2023-04-06T04:04:09;14.35;;;9.15;;
52494;SDS011;38405;53.212;5.660;2023-04-06T04:06:35;13.77;;;8.32;;
52494;SDS011;38405;53.212;5.660;2023-04-06T04:09:01;17.98;;;9.00;;
52494;SDS011;38405;53.212;5.660;2023-04-06T04:11:27;11.73;;;9.35;;
52494;SDS011;38405;53.212;5.660;2023-04-06T04:13:53;14.68;;;9.30;;
52494;SDS011;38405;53.212;5.660;2023-04-06T04:16:18;12.32;;;9.02;;
52494;SDS011;38405;53.212;5.660;2023-04-06T04:18:44;14.38;;;9.13;;
52494;SDS011;38405;53.212;5.660;2023-04-06T04:21:12;12.65;;;9.15;;
52494;SDS011;38405;53.212;5.660;2023-04-06T04:23:37;12.93;;;10.00;;
52494;SDS011;38405;53.212;5.660;2023-04-06T04:26:03;13.07;;;9.43;;
52494;SDS011;38405;53.212;5.660;2023-04-06T04:28:29;14.52;;;9.95;;
52494;SDS011;38405;53.212;5.660;2023-04-06T04:30:54;18.88;;;9.43;;
52494;SDS011;38405;53.212;5.660;2023-04-06T04:33:20;14.40;;;10.20;;
52494;SDS011;38405;53.212;5.660;2023-04-06T04:35:46;15.05;;;9.98;;
52494;SDS011;38405;53.212;5.660;2023-04-06T04:38:11;12.40;;;10.35;;
52494;SDS011;38405;53.212;5.660;2023-04-06T04:40:37;13.40;;;9.77;;
52494;SDS011;38405;53.212;5.660;2023-04-06T04:43:02;17.05;;;8.85;;
52494;SDS011;38405;53.212;5.660;2023-04-06T04:45:28;14.82;;;9.38;;
52494;SDS011;38405;53.212;5.660;2023-04-06T04:47:54;16.52;;;9.75;;
52494;SDS011;38405;53.212;5.660;2023-04-06T04:50:19;16.58;;;9.27;;
52494;SDS011;38405;53.212;5.660;2023-04-06T04:52:45;12.25;;;9.65;;
52494;SDS011;38405;53.212;5.660;2023-04-06T04:55:11;14.10;;;9.68;;
52494;SDS011;38405;53.212;5.660;2023-04-06T04:57:36;15.60;;;10.20;;
52494;SDS011;38405;53.212;5.660;2023-04-06T05:00:02;17.52;;;9.45;;
52494;SDS011;38405;53.212;5.660;2023-04-06T05:02:28;15.23;;;10.02;;
52494;SDS011;38405;53.212;5.660;2023-04-06T05:04:53;13.43;;;9.20;;
52494;SDS011;38405;53.212;5.660;2023-04-06T05:07:19;12.20;;;9.20;;
52494;SDS011;38405;53.212;5.660;2023-04-06T05:09:46;14.60;;;10.40;;
52494;SDS011;38405;53.212;5.660;2023-04-06T05:12:11;18.88;;;10.13;;
52494;SDS011;38405;53.212;5.660;2023-04-06T05:14:37;14.20;;;10.55;;
52494;SDS011;38405;53.212;5.660;2023-04-06T05:17:03;16.77;;;11.00;;
52494;SDS011;38405;53.212;5.660;2023-04-06T05:19:29;15.18;;;10.20;;
52494;SDS011;38405;53.212;5.660;2023-04-06T05:21:55;13.35;;;9.25;;
52494;SDS011;38405;53.212;5.660;2023-04-06T05:24:21;14.38;;;8.98;;
52494;SDS011;38405;53.212;5.660;2023-04-06T05:26:47;14.10;;;10.55;;
52494;SDS011;38405;53.212;5.660;2023-04-06T05:29:13;13.38;;;10.40;;
52494;SDS011;38405;53.212;5.660;2023-04-06T05:31:39;15.02;;;10.60;;
52494;SDS011;38405;53.212;5.660;2023-04-06T05:34:05;15.77;;;9.85;;
52494;SDS011;38405;53.212;5.660;2023-04-06T05:36:31;16.40;;;10.57;;
52494;SDS011;38405;53.212;5.660;2023-04-06T05:38:57;19.60;;;10.73;;
52494;SDS011;38405;53.212;5.660;2023-04-06T05:41:23;13.70;;;10.30;;
52494;SDS011;38405;53.212;5.660;2023-04-06T05:43:49;15.75;;;10.23;;
52494;SDS011;38405;53.212;5.660;2023-04-06T05:46:15;14.57;;;9.38;;
52494;SDS011;38405;53.212;5.660;2023-04-06T05:48:40;18.15;;;9.95;;
52494;SDS011;38405;53.212;5.660;2023-04-06T05:51:06;13.88;;;9.68;;
52494;SDS011;38405;53.212;5.660;2023-04-06T05:53:32;15.00;;;10.30;;
52494;SDS011;38405;53.212;5.660;2023-04-06T05:56:01;14.15;;;10.02;;
52494;SDS011;38405;53.212;5.660;2023-04-06T05:58:27;15.43;;;10.55;;
52494;SDS011;38405;53.212;5.660;2023-04-06T06:00:57;14.95;;;10.30;;
52494;SDS011;38405;53.212;5.660;2023-04-06T06:03:26;15.73;;;10.95;;
52494;SDS011;38405;53.212;5.660;2023-04-06T06:05:52;14.13;;;9.80;;
52494;SDS011;38405;53.212;5.660;2023-04-06T06:08:17;13.85;;;10.60;;
52494;SDS011;38405;53.212;5.660;2023-04-06T06:10:43;13.15;;;9.75;;
52494;SDS011;38405;53.212;5.660;2023-04-06T06:13:09;14.52;;;9.93;;
52494;SDS011;38405;53.212;5.660;2023-04-06T06:15:35;14.95;;;10.07;;
52494;SDS011;38405;53.212;5.660;2023-04-06T06:18:00;15.35;;;10.32;;
52494;SDS011;38405;53.212;5.660;2023-04-06T06:20:26;14.25;;;10.02;;
52494;SDS011;38405;53.212;5.660;2023-04-06T06:22:52;13.63;;;10.25;;
52494;SDS011;38405;53.212;5.660;2023-04-06T06:25:18;12.85;;;10.00;;
52494;SDS011;38405;53.212;5.660;2023-04-06T06:27:44;13.32;;;9.35;;
52494;SDS011;38405;53.212;5.660;2023-04-06T06:30:09;14.13;;;9.68;;
52494;SDS011;38405;53.212;5.660;2023-04-06T06:32:35;16.02;;;10.27;;
52494;SDS011;38405;53.212;5.660;2023-04-06T06:35:01;13.05;;;9.48;;
52494;SDS011;38405;53.212;5.660;2023-04-06T06:37:27;15.38;;;10.63;;
52494;SDS011;38405;53.212;5.660;2023-04-06T06:39:53;16.30;;;9.82;;
52494;SDS011;38405;53.212;5.660;2023-04-06T06:42:18;16.17;;;11.07;;
52494;SDS011;38405;53.212;5.660;2023-04-06T06:44:44;14.18;;;10.88;;
52494;SDS011;38405;53.212;5.660;2023-04-06T06:47:10;14.32;;;10.20;;
52494;SDS011;38405;53.212;5.660;2023-04-06T06:49:35;10.52;;;9.25;;
52494;SDS011;38405;53.212;5.660;2023-04-06T06:52:01;12.93;;;9.35;;
52494;SDS011;38405;53.212;5.660;2023-04-06T06:54:27;14.40;;;10.55;;
52494;SDS011;38405;53.212;5.660;2023-04-06T06:56:52;15.80;;;10.40;;
52494;SDS011;38405;53.212;5.660;2023-04-06T06:59:19;17.73;;;10.73;;
52494;SDS011;38405;53.212;5.660;2023-04-06T07:01:46;15.68;;;10.45;;
52494;SDS011;38405;53.212;5.660;2023-04-06T07:04:11;18.20;;;11.48;;
52494;SDS011;38405;53.212;5.660;2023-04-06T07:06:37;16.85;;;10.50;;
52494;SDS011;38405;53.212;5.660;2023-04-06T07:09:03;14.38;;;11.05;;
52494;SDS011;38405;53.212;5.660;2023-04-06T07:11:29;14.95;;;10.60;;
52494;SDS011;38405;53.212;5.660;2023-04-06T07:13:55;15.27;;;10.45;;
52494;SDS011;38405;53.212;5.660;2023-04-06T07:16:21;15.82;;;10.25;;
52494;SDS011;38405;53.212;5.660;2023-04-06T07:18:46;13.43;;;9.48;;
52494;SDS011;38405;53.212;5.660;2023-04-06T07:21:12;16.38;;;10.05;;
52494;SDS011;38405;53.212;5.660;2023-04-06T07:23:38;14.77;;;10.70;;
52494;SDS011;38405;53.212;5.660;2023-04-06T07:26:03;13.57;;;9.27;;
52494;SDS011;38405;53.212;5.660;2023-04-06T07:28:29;12.95;;;9.18;;
52494;SDS011;38405;53.212;5.660;2023-04-06T07:30:55;14.70;;;10.55;;
52494;SDS011;38405;53.212;5.660;2023-04-06T07:33:21;12.52;;;9.55;;
52494;SDS011;38405;53.212;5.660;2023-04-06T07:35:46;13.23;;;9.88;;
52494;SDS011;38405;53.212;5.660;2023-04-06T07:38:13;14.77;;;10.45;;
52494;SDS011;38405;53.212;5.660;2023-04-06T07:40:38;14.73;;;9.82;;
52494;SDS011;38405;53.212;5.660;2023-04-06T07:43:04;14.75;;;10.32;;
52494;SDS011;38405;53.212;5.660;2023-04-06T07:45:30;12.23;;;9.00;;
52494;SDS011;38405;53.212;5.660;2023-04-06T07:47:56;13.50;;;9.95;;
52494;SDS011;38405;53.212;5.660;2023-04-06T07:50:22;13.80;;;9.82;;
52494;SDS011;38405;53.212;5.660;2023-04-06T07:52:48;13.15;;;9.73;;
52494;SDS011;38405;53.212;5.660;2023-04-06T07:55:13;14.93;;;9.05;;
52494;SDS011;38405;53.212;5.660;2023-04-06T07:57:39;16.48;;;10.60;;
52494;SDS011;38405;53.212;5.660;2023-04-06T08:00:05;12.07;;;9.50;;
52494;SDS011;38405;53.212;5.660;2023-04-06T08:02:31;14.70;;;10.73;;
52494;SDS011;38405;53.212;5.660;2023-04-06T08:04:57;15.40;;;10.43;;
52494;SDS011;38405;53.212;5.660;2023-04-06T08:07:22;13.95;;;10.30;;
52494;SDS011;38405;53.212;5.660;2023-04-06T08:09:48;11.77;;;9.63;;
52494;SDS011;38405;53.212;5.660;2023-04-06T08:12:14;14.45;;;10.20;;
52494;SDS011;38405;53.212;5.660;2023-04-06T08:14:39;14.05;;;9.73;;
52494;SDS011;38405;53.212;5.660;2023-04-06T08:17:05;13.25;;;9.95;;
52494;SDS011;38405;53.212;5.660;2023-04-06T08:19:30;15.70;;;10.50;;
52494;SDS011;38405;53.212;5.660;2023-04-06T08:21:56;17.30;;;11.45;;
52494;SDS011;38405;53.212;5.660;2023-04-06T08:24:22;15.77;;;10.38;;
52494;SDS011;38405;53.212;5.660;2023-04-06T08:26:47;17.98;;;11.43;;
52494;SDS011;38405;53.212;5.660;2023-04-06T08:29:13;20.67;;;12.10;;
52494;SDS011;38405;53.212;5.660;2023-04-06T08:31:39;17.23;;;11.45;;
52494;SDS011;38405;53.212;5.660;2023-04-06T08:34:05;17.95;;;11.07;;
52494;SDS011;38405;53.212;5.660;2023-04-06T08:36:31;16.85;;;11.75;;
52494;SDS011;38405;53.212;5.660;2023-04-06T08:38:58;17.05;;;12.27;;
52494;SDS011;38405;53.212;5.660;2023-04-06T08:41:24;18.08;;;11.50;;
52494;SDS011;38405;53.212;5.660;2023-04-06T08:43:56;15.60;;;10.93;;
52494;SDS011;38405;53.212;5.660;2023-04-06T08:46:23;17.03;;;11.77;;
52494;SDS011;38405;53.212;5.660;2023-04-06T08:48:59;15.95;;;11.70;;
52494;SDS011;38405;53.212;5.660;2023-04-06T08:51:27;15.63;;;11.90;;
52494;SDS011;38405;53.212;5.660;2023-04-06T08:53:54;15.68;;;11.00;;
52494;SDS011;38405;53.212;5.660;2023-04-06T08:56:23;19.88;;;13.32;;
52494;SDS011;38405;53.212;5.660;2023-04-06T08:58:50;17.27;;;12.95;;
52494;SDS011;38405;53.212;5.660;2023-04-06T09:01:20;20.08;;;12.85;;
52494;SDS011;38405;53.212;5.660;2023-04-06T09:03:48;22.73;;;13.25;;
52494;SDS011;38405;53.212;5.660;2023-04-06T09:06:15;18.10;;;12.68;;
52494;SDS011;38405;53.212;5.660;2023-04-06T09:08:44;21.10;;;13.00;;
52494;SDS011;38405;53.212;5.660;2023-04-06T09:11:10;18.70;;;13.65;;
52494;SDS011;38405;53.212;5.660;2023-04-06T09:13:45;20.85;;;14.40;;
52494;SDS011;38405;53.212;5.660;2023-04-06T09:16:12;22.30;;;14.75;;
52494;SDS011;38405;53.212;5.660;2023-04-06T09:18:38;21.58;;;14.23;;
52494;SDS011;38405;53.212;5.660;2023-04-06T09:21:05;23.25;;;14.90;;
52494;SDS011;38405;53.212;5.660;2023-04-06T09:23:32;21.15;;;14.75;;
52494;SDS011;38405;53.212;5.660;2023-04-06T09:26:14;24.58;;;14.77;;
52494;SDS011;38405;53.212;5.660;2023-04-06T09:28:52;21.48;;;15.40;;
52494;SDS011;38405;53.212;5.660;2023-04-06T09:31:23;25.15;;;15.35;;
52494;SDS011;38405;53.212;5.660;2023-04-06T09:33:50;23.40;;;15.88;;
52494;SDS011;38405;53.212;5.660;2023-04-06T09:36:19;26.90;;;16.95;;
52494;SDS011;38405;53.212;5.660;2023-04-06T09:38:55;24.92;;;16.40;;
52494;SDS011;38405;53.212;5.660;2023-04-06T09:41:31;30.60;;;16.88;;
52494;SDS011;38405;53.212;5.660;2023-04-06T09:44:05;28.20;;;16.27;;
52494;SDS011;38405;53.212;5.660;2023-04-06T09:46:32;25.00;;;16.75;;
52494;SDS011;38405;53.212;5.660;2023-04-06T09:49:03;29.70;;;17.27;;
52494;SDS011;38405;53.212;5.660;2023-04-06T09:51:30;25.17;;;16.77;;
52494;SDS011;38405;53.212;5.660;2023-04-06T09:53:58;23.10;;;15.82;;
52494;SDS011;38405;53.212;5.660;2023-04-06T09:56:28;22.00;;;15.23;;
52494;SDS011;38405;53.212;5.660;2023-04-06T09:58:57;31.60;;;16.17;;
52494;SDS011;38405;53.212;5.660;2023-04-06T10:01:28;27.33;;;17.10;;
52494;SDS011;38405;53.212;5.660;2023-04-06T10:06:40;23.05;;;15.35;;
52494;SDS011;38405;53.212;5.660;2023-04-06T10:09:06;26.17;;;16.35;;
52494;SDS011;38405;53.212;5.660;2023-04-06T10:11:33;24.52;;;16.33;;
52494;SDS011;38405;53.212;5.660;2023-04-06T10:13:59;29.42;;;16.48;;
52494;SDS011;38405;53.212;5.660;2023-04-06T10:16:26;27.25;;;16.40;;
52494;SDS011;38405;53.212;5.660;2023-04-06T10:18:54;29.33;;;16.92;;
52494;SDS011;38405;53.212;5.660;2023-04-06T10:21:30;27.88;;;16.77;;
52494;SDS011;38405;53.212;5.660;2023-04-06T10:24:07;25.45;;;16.05;;
52494;SDS011;38405;53.212;5.660;2023-04-06T10:26:35;23.80;;;16.25;;
52494;SDS011;38405;53.212;5.660;2023-04-06T10:29:04;26.58;;;16.38;;
52494;SDS011;38405;53.212;5.660;2023-04-06T10:31:30;24.13;;;15.52;;
52494;SDS011;38405;53.212;5.660;2023-04-06T10:33:57;20.88;;;15.57;;
52494;SDS011;38405;53.212;5.660;2023-04-06T10:36:28;29.55;;;15.55;;
52494;SDS011;38405;53.212;5.660;2023-04-06T10:38:57;25.85;;;16.63;;
52494;SDS011;38405;53.212;5.660;2023-04-06T10:41:31;25.08;;;14.90;;
52494;SDS011;38405;53.212;5.660;2023-04-06T10:44:22;27.38;;;16.02;;
52494;SDS011;38405;53.212;5.660;2023-04-06T10:46:55;29.58;;;15.55;;
52494;SDS011;38405;53.212;5.660;2023-04-06T10:49:22;31.17;;;16.30;;
52494;SDS011;38405;53.212;5.660;2023-04-06T10:51:55;22.42;;;16.00;;
52494;SDS011;38405;53.212;5.660;2023-04-06T10:54:23;23.42;;;16.88;;
52494;SDS011;38405;53.212;5.660;2023-04-06T10:56:50;25.05;;;16.38;;
52494;SDS011;38405;53.212;5.660;2023-04-06T10:59:22;24.75;;;16.98;;
52494;SDS011;38405;53.212;5.660;2023-04-06T11:01:49;22.13;;;15.93;;
52494;SDS011;38405;53.212;5.660;2023-04-06T11:04:19;25.85;;;17.48;;
52494;SDS011;38405;53.212;5.660;2023-04-06T11:06:46;24.95;;;16.58;;
52494;SDS011;38405;53.212;5.660;2023-04-06T11:09:22;23.27;;;16.55;;
52494;SDS011;38405;53.212;5.660;2023-04-06T11:11:49;24.38;;;15.85;;
52494;SDS011;38405;53.212;5.660;2023-04-06T11:14:14;26.13;;;16.50;;
52494;SDS011;38405;53.212;5.660;2023-04-06T11:16:40;24.17;;;16.15;;
52494;SDS011;38405;53.212;5.660;2023-04-06T11:19:06;25.67;;;17.15;;
52494;SDS011;38405;53.212;5.660;2023-04-06T11:24:07;25.40;;;16.30;;
52494;SDS011;38405;53.212;5.660;2023-04-06T11:26:38;30.17;;;17.48;;
52494;SDS011;38405;53.212;5.660;2023-04-06T11:29:05;27.33;;;17.90;;
52494;SDS011;38405;53.212;5.660;2023-04-06T11:31:31;30.27;;;18.42;;
52494;SDS011;38405;53.212;5.660;2023-04-06T11:33:56;31.52;;;17.33;;
52494;SDS011;38405;53.212;5.660;2023-04-06T11:36:22;25.33;;;16.35;;
52494;SDS011;38405;53.212;5.660;2023-04-06T11:38:48;22.65;;;15.20;;
52494;SDS011;38405;53.212;5.660;2023-04-06T11:41:14;21.85;;;14.57;;
52494;SDS011;38405;53.212;5.660;2023-04-06T11:43:45;20.23;;;14.65;;
52494;SDS011;38405;53.212;5.660;2023-04-06T11:46:16;18.20;;;13.70;;
52494;SDS011;38405;53.212;5.660;2023-04-06T11:48:43;20.90;;;14.80;;
52494;SDS011;38405;53.212;5.660;2023-04-06T11:51:10;24.10;;;15.63;;
52494;SDS011;38405;53.212;5.660;2023-04-06T11:53:43;23.77;;;14.65;;
52494;SDS011;38405;53.212;5.660;2023-04-06T11:56:10;19.88;;;13.35;;
52494;SDS011;38405;53.212;5.660;2023-04-06T11:58:36;18.25;;;13.07;;
52494;SDS011;38405;53.212;5.660;2023-04-06T12:01:05;20.27;;;12.20;;
52494;SDS011;38405;53.212;5.660;2023-04-06T12:03:30;19.38;;;12.15;;
52494;SDS011;38405;53.212;5.660;2023-04-06T12:05:56;19.17;;;10.50;;
52494;SDS011;38405;53.212;5.660;2023-04-06T12:08:22;14.48;;;9.85;;
52494;SDS011;38405;53.212;5.660;2023-04-06T12:10:50;14.40;;;10.32;;
52494;SDS011;38405;53.212;5.660;2023-04-06T12:13:16;14.65;;;10.32;;
52494;SDS011;38405;53.212;5.660;2023-04-06T12:15:41;13.75;;;10.63;;
52494;SDS011;38405;53.212;5.660;2023-04-06T12:18:07;16.75;;;11.60;;
52494;SDS011;38405;53.212;5.660;2023-04-06T12:20:33;17.98;;;11.65;;
52494;SDS011;38405;53.212;5.660;2023-04-06T12:22:58;13.93;;;10.30;;
52494;SDS011;38405;53.212;5.660;2023-04-06T12:25:24;25.33;;;13.20;;
52494;SDS011;38405;53.212;5.660;2023-04-06T12:27:50;19.88;;;11.75;;
52494;SDS011;38405;53.212;5.660;2023-04-06T12:30:15;17.95;;;10.98;;
52494;SDS011;38405;53.212;5.660;2023-04-06T12:32:41;15.35;;;11.60;;
52494;SDS011;38405;53.212;5.660;2023-04-06T12:35:07;18.17;;;12.05;;
52494;SDS011;38405;53.212;5.660;2023-04-06T12:37:33;16.67;;;10.32;;
52494;SDS011;38405;53.212;5.660;2023-04-06T12:39:59;15.63;;;10.43;;
52494;SDS011;38405;53.212;5.660;2023-04-06T12:42:25;14.50;;;11.07;;
52494;SDS011;38405;53.212;5.660;2023-04-06T12:44:51;15.57;;;10.55;;
52494;SDS011;38405;53.212;5.660;2023-04-06T12:47:17;13.45;;;9.40;;
52494;SDS011;38405;53.212;5.660;2023-04-06T12:49:43;12.38;;;9.18;;
52494;SDS011;38405;53.212;5.660;2023-04-06T12:52:09;13.10;;;9.00;;
52494;SDS011;38405;53.212;5.660;2023-04-06T12:54:35;15.93;;;8.95;;
52494;SDS011;38405;53.212;5.660;2023-04-06T12:57:01;13.15;;;8.93;;
52494;SDS011;38405;53.212;5.660;2023-04-06T12:59:27;14.68;;;9.82;;
52494;SDS011;38405;53.212;5.660;2023-04-06T13:01:53;11.13;;;8.30;;
52494;SDS011;38405;53.212;5.660;2023-04-06T13:04:18;10.88;;;7.32;;
52494;SDS011;38405;53.212;5.660;2023-04-06T13:06:44;9.27;;;6.50;;
52494;SDS011;38405;53.212;5.660;2023-04-06T13:09:10;8.93;;;6.22;;
52494;SDS011;38405;53.212;5.660;2023-04-06T13:11:35;7.80;;;6.35;;
52494;SDS011;38405;53.212;5.660;2023-04-06T13:14:01;10.45;;;7.53;;
52494;SDS011;38405;53.212;5.660;2023-04-06T13:16:27;13.50;;;8.23;;
52494;SDS011;38405;53.212;5.660;2023-04-06T13:18:52;10.30;;;7.43;;
52494;SDS011;38405;53.212;5.660;2023-04-06T13:21:18;10.80;;;7.90;;
52494;SDS011;38405;53.212;5.660;2023-04-06T13:23:45;15.13;;;8.27;;
52494;SDS011;38405;53.212;5.660;2023-04-06T13:26:11;13.80;;;9.55;;
52494;SDS011;38405;53.212;5.660;2023-04-06T13:28:38;11.82;;;8.85;;
52494;SDS011;38405;53.212;5.660;2023-04-06T13:31:04;14.20;;;9.85;;
52494;SDS011;38405;53.212;5.660;2023-04-06T13:33:30;14.68;;;10.52;;
52494;SDS011;38405;53.212;5.660;2023-04-06T13:35:56;16.33;;;10.43;;
52494;SDS011;38405;53.212;5.660;2023-04-06T13:38:22;16.13;;;10.65;;
52494;SDS011;38405;53.212;5.660;2023-04-06T13:40:50;16.77;;;11.15;;
52494;SDS011;38405;53.212;5.660;2023-04-06T13:43:16;15.52;;;11.10;;
52494;SDS011;38405;53.212;5.660;2023-04-06T13:45:48;18.40;;;12.68;;
52494;SDS011;38405;53.212;5.660;2023-04-06T13:48:15;19.65;;;12.48;;
52494;SDS011;38405;53.212;5.660;2023-04-06T13:50:41;17.15;;;11.80;;
52494;SDS011;38405;53.212;5.660;2023-04-06T13:53:07;18.83;;;11.40;;
52494;SDS011;38405;53.212;5.660;2023-04-06T13:55:32;18.67;;;12.18;;
52494;SDS011;38405;53.212;5.660;2023-04-06T13:57:58;17.73;;;11.85;;
52494;SDS011;38405;53.212;5.660;2023-04-06T14:00:24;19.95;;;12.88;;
52494;SDS011;38405;53.212;5.660;2023-04-06T14:02:49;21.27;;;12.40;;
52494;SDS011;38405;53.212;5.660;2023-04-06T14:05:15;17.13;;;12.55;;
52494;SDS011;38405;53.212;5.660;2023-04-06T14:07:42;18.40;;;12.10;;
52494;SDS011;38405;53.212;5.660;2023-04-06T14:10:08;16.25;;;12.65;;
52494;SDS011;38405;53.212;5.660;2023-04-06T14:12:39;17.95;;;12.98;;
52494;SDS011;38405;53.212;5.660;2023-04-06T14:15:06;17.17;;;11.98;;
52494;SDS011;38405;53.212;5.660;2023-04-06T14:17:33;17.55;;;12.73;;
52494;SDS011;38405;53.212;5.660;2023-04-06T14:19:58;18.67;;;12.90;;
52494;SDS011;38405;53.212;5.660;2023-04-06T14:22:24;17.95;;;13.55;;
52494;SDS011;38405;53.212;5.660;2023-04-06T14:24:51;21.00;;;13.43;;
52494;SDS011;38405;53.212;5.660;2023-04-06T14:27:16;21.67;;;13.30;;
52494;SDS011;38405;53.212;5.660;2023-04-06T14:29:42;19.02;;;14.05;;